sensor_id;sensor_type;location;lat;lon;timestamp;pressure;altitude;pressure_sealevel;temperature;humidity
21838;BME280;11081;45.946;6.140;2023-05-16T00:01:22;94720.25;;;13.44;73.99
21838;BME280;11081;45.946;6.140;2023-05-16T00:03:50;94718.16;;;13.46;73.91
21838;BME280;11081;45.946;6.140;2023-05-16T00:06:18;94721.31;;;13.48;73.80
21838;BME280;11081;45.946;6.140;2023-05-16T00:08:46;94713.19;;;13.50;74.04
21838;BME280;11081;45.946;6.140;2023-05-16T00:11:15;94714.53;;;13.52;74.23
21838;BME280;11081;45.946;6.140;2023-05-16T00:13:45;94711.72;;;13.59;74.07
21838;BME280;11081;45.946;6.140;2023-05-16T00:16:13;94714.38;;;13.64;73.51
21838;BME280;11081;45.946;6.140;2023-05-16T00:18:41;94709.63;;;13.61;73.83
21838;BME280;11081;45.946;6.140;2023-05-16T00:21:11;94710.72;;;13.65;73.79
21838;BME280;11081;45.946;6.140;2023-05-16T00:23:39;94708.91;;;13.70;73.44
21838;BME280;11081;45.946;6.140;2023-05-16T00:26:07;94704.94;;;13.63;74.09
21838;BME280;11081;45.946;6.140;2023-05-16T00:28:39;94705.47;;;13.65;74.01
21838;BME280;11081;45.946;6.140;2023-05-16T00:31:08;94701.75;;;13.56;74.39
21838;BME280;11081;45.946;6.140;2023-05-16T00:33:36;94703.06;;;13.31;75.47
21838;BME280;11081;45.946;6.140;2023-05-16T00:36:05;94699.97;;;13.34;75.23
21838;BME280;11081;45.946;6.140;2023-05-16T00:38:33;94692.16;;;13.39;74.71
21838;BME280;11081;45.946;6.140;2023-05-16T00:41:01;94693.75;;;13.40;75.11
21838;BME280;11081;45.946;6.140;2023-05-16T00:43:29;94690.03;;;13.36;74.89
21838;BME280;11081;45.946;6.140;2023-05-16T00:45:58;94689.00;;;13.37;75.13
21838;BME280;11081;45.946;6.140;2023-05-16T00:48:28;94678.59;;;13.48;74.92
21838;BME280;11081;45.946;6.140;2023-05-16T00:50:59;94675.22;;;13.52;74.55
21838;BME280;11081;45.946;6.140;2023-05-16T00:53:28;94681.75;;;13.50;74.47
21838;BME280;11081;45.946;6.140;2023-05-16T00:55:56;94684.66;;;13.21;75.78
21838;BME280;11081;45.946;6.140;2023-05-16T00:58:25;94683.16;;;13.30;76.30
21838;BME280;11081;45.946;6.140;2023-05-16T01:00:53;94681.56;;;13.29;75.90
21838;BME280;11081;45.946;6.140;2023-05-16T01:03:21;94673.56;;;13.14;76.13
21838;BME280;11081;45.946;6.140;2023-05-16T01:05:50;94670.88;;;13.09;77.03
21838;BME280;11081;45.946;6.140;2023-05-16T01:08:19;94667.72;;;13.07;76.73
21838;BME280;11081;45.946;6.140;2023-05-16T01:10:57;94666.16;;;13.11;76.83
21838;BME280;11081;45.946;6.140;2023-05-16T01:13:32;94659.53;;;13.25;76.18
21838;BME280;11081;45.946;6.140;2023-05-16T01:16:09;94657.94;;;13.24;75.76
21838;BME280;11081;45.946;6.140;2023-05-16T01:18:41;94666.84;;;13.23;75.66
21838;BME280;11081;45.946;6.140;2023-05-16T01:21:23;94671.81;;;13.20;75.37
21838;BME280;11081;45.946;6.140;2023-05-16T01:24:01;94669.44;;;13.18;75.28
21838;BME280;11081;45.946;6.140;2023-05-16T01:26:34;94670.22;;;13.19;75.26
21838;BME280;11081;45.946;6.140;2023-05-16T01:29:05;94667.78;;;13.12;75.35
21838;BME280;11081;45.946;6.140;2023-05-16T01:31:34;94669.78;;;13.05;75.98
21838;BME280;11081;45.946;6.140;2023-05-16T01:34:02;94667.13;;;13.00;76.11
21838;BME280;11081;45.946;6.140;2023-05-16T01:36:34;94672.06;;;12.96;76.05
21838;BME280;11081;45.946;6.140;2023-05-16T01:39:10;94672.88;;;12.97;76.20
21838;BME280;11081;45.946;6.140;2023-05-16T01:41:50;94671.28;;;12.96;76.21
21838;BME280;11081;45.946;6.140;2023-05-16T01:44:22;94671.28;;;12.96;76.39
21838;BME280;11081;45.946;6.140;2023-05-16T01:46:55;94673.38;;;12.94;76.44
21838;BME280;11081;45.946;6.140;2023-05-16T01:49:28;94673.38;;;12.94;76.47
21838;BME280;11081;45.946;6.140;2023-05-16T01:52:01;94673.91;;;12.96;75.79
21838;BME280;11081;45.946;6.140;2023-05-16T01:54:33;94668.59;;;12.91;75.88
21838;BME280;11081;45.946;6.140;2023-05-16T01:57:05;94671.16;;;12.86;75.82
21838;BME280;11081;45.946;6.140;2023-05-16T01:59:35;94673.25;;;12.83;76.15
21838;BME280;11081;45.946;6.140;2023-05-16T02:02:05;94666.44;;;12.82;76.39
21838;BME280;11081;45.946;6.140;2023-05-16T02:04:33;94664.88;;;12.87;76.19
21838;BME280;11081;45.946;6.140;2023-05-16T02:07:01;94667.50;;;12.87;76.47
21838;BME280;11081;45.946;6.140;2023-05-16T02:09:30;94675.84;;;12.83;76.91
21838;BME280;11081;45.946;6.140;2023-05-16T02:11:58;94677.34;;;12.74;77.08
21838;BME280;11081;45.946;6.140;2023-05-16T02:14:29;94674.38;;;12.44;78.68
21838;BME280;11081;45.946;6.140;2023-05-16T02:16:57;94674.75;;;12.31;79.63
21838;BME280;11081;45.946;6.140;2023-05-16T02:19:25;94666.16;;;12.35;79.72
21838;BME280;11081;45.946;6.140;2023-05-16T02:21:53;94681.19;;;12.45;79.43
21838;BME280;11081;45.946;6.140;2023-05-16T02:24:22;94679.53;;;12.61;79.03
21838;BME280;11081;45.946;6.140;2023-05-16T02:26:50;94673.56;;;12.65;78.76
21838;BME280;11081;45.946;6.140;2023-05-16T02:29:18;94678.78;;;12.65;78.95
21838;BME280;11081;45.946;6.140;2023-05-16T02:31:47;94676.81;;;12.72;78.27
21838;BME280;11081;45.946;6.140;2023-05-16T02:34:15;94677.88;;;12.76;77.94
21838;BME280;11081;45.946;6.140;2023-05-16T02:36:43;94671.38;;;12.79;78.04
21838;BME280;11081;45.946;6.140;2023-05-16T02:39:11;94671.97;;;12.86;77.66
21838;BME280;11081;45.946;6.140;2023-05-16T02:41:39;94668.28;;;12.87;77.06
21838;BME280;11081;45.946;6.140;2023-05-16T02:44:07;94675.84;;;12.83;76.90
21838;BME280;11081;45.946;6.140;2023-05-16T02:46:35;94668.53;;;12.86;77.57
21838;BME280;11081;45.946;6.140;2023-05-16T02:49:05;94665.94;;;12.86;77.25
21838;BME280;11081;45.946;6.140;2023-05-16T02:51:32;94662.28;;;12.87;77.18
21838;BME280;11081;45.946;6.140;2023-05-16T02:54:00;94657.03;;;12.87;77.36
21838;BME280;11081;45.946;6.140;2023-05-16T02:56:28;94662.75;;;12.83;77.87
21838;BME280;11081;45.946;6.140;2023-05-16T02:58:57;94665.63;;;12.82;77.84
21838;BME280;11081;45.946;6.140;2023-05-16T03:01:24;94660.69;;;12.86;77.49
21838;BME280;11081;45.946;6.140;2023-05-16T03:03:52;94651.28;;;12.90;76.99
21838;BME280;11081;45.946;6.140;2023-05-16T03:06:23;94656.53;;;12.90;77.10
21838;BME280;11081;45.946;6.140;2023-05-16T03:08:51;94654.94;;;12.89;77.60
21838;BME280;11081;45.946;6.140;2023-05-16T03:11:19;94653.91;;;12.90;76.97
21838;BME280;11081;45.946;6.140;2023-05-16T03:13:47;94653.38;;;12.88;77.39
21838;BME280;11081;45.946;6.140;2023-05-16T03:16:15;94656.53;;;12.90;77.39
21838;BME280;11081;45.946;6.140;2023-05-16T03:18:43;94659.09;;;12.85;78.10
21838;BME280;11081;45.946;6.140;2023-05-16T03:21:12;94660.41;;;12.82;78.85
21838;BME280;11081;45.946;6.140;2023-05-16T03:23:41;94658.03;;;12.80;78.75
21838;BME280;11081;45.946;6.140;2023-05-16T03:26:09;94659.59;;;12.81;79.15
21838;BME280;11081;45.946;6.140;2023-05-16T03:28:37;94654.38;;;12.81;79.12
21838;BME280;11081;45.946;6.140;2023-05-16T03:31:05;94659.66;;;12.87;78.90
21838;BME280;11081;45.946;6.140;2023-05-16T03:33:34;94656.50;;;12.85;78.69
21838;BME280;11081;45.946;6.140;2023-05-16T03:36:02;94660.16;;;12.83;78.77
21838;BME280;11081;45.946;6.140;2023-05-16T03:38:30;94655.94;;;12.82;79.13
21838;BME280;11081;45.946;6.140;2023-05-16T03:41:00;94652.78;;;12.80;79.14
21838;BME280;11081;45.946;6.140;2023-05-16T03:43:28;94657.72;;;12.77;79.47
21838;BME280;11081;45.946;6.140;2023-05-16T03:45:56;94651.69;;;12.76;79.46
21838;BME280;11081;45.946;6.140;2023-05-16T03:48:24;94658.53;;;12.77;79.20
21838;BME280;11081;45.946;6.140;2023-05-16T03:50:52;94664.25;;;12.74;78.72
21838;BME280;11081;45.946;6.140;2023-05-16T03:53:20;94662.13;;;12.71;79.03
21838;BME280;11081;45.946;6.140;2023-05-16T03:55:48;94660.78;;;12.69;78.83
21838;BME280;11081;45.946;6.140;2023-05-16T03:58:17;94654.50;;;12.70;78.86
21838;BME280;11081;45.946;6.140;2023-05-16T04:00:45;94652.13;;;12.68;78.32
21838;BME280;11081;45.946;6.140;2023-05-16T04:03:13;94654.19;;;12.66;78.48
21838;BME280;11081;45.946;6.140;2023-05-16T04:05:41;94654.94;;;12.62;78.60
21838;BME280;11081;45.946;6.140;2023-05-16T04:08:10;94658.84;;;12.59;78.89
21838;BME280;11081;45.946;6.140;2023-05-16T04:10:38;94660.66;;;12.59;78.78
21838;BME280;11081;45.946;6.140;2023-05-16T04:13:06;94655.97;;;12.61;78.79
21838;BME280;11081;45.946;6.140;2023-05-16T04:15:36;94659.38;;;12.61;78.91
21838;BME280;11081;45.946;6.140;2023-05-16T04:18:04;94653.66;;;12.64;78.84
21838;BME280;11081;45.946;6.140;2023-05-16T04:20:32;94657.31;;;12.63;79.09
21838;BME280;11081;45.946;6.140;2023-05-16T04:23:00;94651.81;;;12.65;79.82
21838;BME280;11081;45.946;6.140;2023-05-16T04:25:29;94659.44;;;12.66;79.80
21838;BME280;11081;45.946;6.140;2023-05-16T04:27:57;94659.97;;;12.68;80.14
21838;BME280;11081;45.946;6.140;2023-05-16T04:30:25;94654.94;;;12.62;80.79
21838;BME280;11081;45.946;6.140;2023-05-16T04:32:54;94658.78;;;12.54;82.05
21838;BME280;11081;45.946;6.140;2023-05-16T04:35:23;94660.72;;;12.42;82.25
21838;BME280;11081;45.946;6.140;2023-05-16T04:37:51;94653.31;;;12.34;82.21
21838;BME280;11081;45.946;6.140;2023-05-16T04:40:19;94660.28;;;12.28;82.48
21838;BME280;11081;45.946;6.140;2023-05-16T04:42:47;94658.06;;;12.37;82.20
21838;BME280;11081;45.946;6.140;2023-05-16T04:45:15;94646.44;;;12.49;81.26
21838;BME280;11081;45.946;6.140;2023-05-16T04:47:43;94653.06;;;12.57;81.04
21838;BME280;11081;45.946;6.140;2023-05-16T04:50:13;94648.91;;;12.61;80.87
21838;BME280;11081;45.946;6.140;2023-05-16T04:52:41;94652.06;;;12.63;80.95
21838;BME280;11081;45.946;6.140;2023-05-16T04:55:10;94645.75;;;12.59;81.45
21838;BME280;11081;45.946;6.140;2023-05-16T04:57:38;94645.56;;;12.66;81.06
21838;BME280;11081;45.946;6.140;2023-05-16T05:00:06;94640.63;;;12.69;81.42
21838;BME280;11081;45.946;6.140;2023-05-16T05:02:36;94642.25;;;12.75;80.82
21838;BME280;11081;45.946;6.140;2023-05-16T05:05:05;94641.78;;;12.78;80.51
21838;BME280;11081;45.946;6.140;2023-05-16T05:07:35;94644.38;;;12.78;80.92
21838;BME280;11081;45.946;6.140;2023-05-16T05:10:04;94643.81;;;12.71;81.04
21838;BME280;11081;45.946;6.140;2023-05-16T05:12:33;94645.75;;;12.59;82.58
21838;BME280;11081;45.946;6.140;2023-05-16T05:15:01;94641.00;;;12.56;82.67
21838;BME280;11081;45.946;6.140;2023-05-16T05:17:29;94647.34;;;12.60;82.24
21838;BME280;11081;45.946;6.140;2023-05-16T05:19:57;94646.75;;;12.53;83.69
21838;BME280;11081;45.946;6.140;2023-05-16T05:22:28;94646.13;;;12.46;84.11
21838;BME280;11081;45.946;6.140;2023-05-16T05:24:58;94645.47;;;12.56;84.08
21838;BME280;11081;45.946;6.140;2023-05-16T05:27:26;94641.09;;;12.66;83.04
21838;BME280;11081;45.946;6.140;2023-05-16T05:29:54;94638.66;;;12.81;82.07
21838;BME280;11081;45.946;6.140;2023-05-16T05:32:22;94641.94;;;12.94;81.08
21838;BME280;11081;45.946;6.140;2023-05-16T05:34:50;94640.94;;;13.00;80.30
21838;BME280;11081;45.946;6.140;2023-05-16T05:37:18;94633.91;;;13.05;80.04
21838;BME280;11081;45.946;6.140;2023-05-16T05:39:46;94639.94;;;13.06;79.47
21838;BME280;11081;45.946;6.140;2023-05-16T05:42:16;94635.78;;;13.10;79.31
21838;BME280;11081;45.946;6.140;2023-05-16T05:44:44;94635.31;;;13.13;79.28
21838;BME280;11081;45.946;6.140;2023-05-16T05:47:12;94635.91;;;13.20;79.28
21838;BME280;11081;45.946;6.140;2023-05-16T05:49:40;94629.28;;;13.12;80.86
21838;BME280;11081;45.946;6.140;2023-05-16T05:52:08;94640.03;;;13.16;79.66
21838;BME280;11081;45.946;6.140;2023-05-16T05:54:36;94631.75;;;13.24;78.99
21838;BME280;11081;45.946;6.140;2023-05-16T05:57:04;94631.75;;;13.24;79.57
21838;BME280;11081;45.946;6.140;2023-05-16T05:59:35;94631.22;;;13.27;79.37
21838;BME280;11081;45.946;6.140;2023-05-16T06:02:03;94633.34;;;13.30;79.84
21838;BME280;11081;45.946;6.140;2023-05-16T06:04:31;94635.56;;;13.43;80.12
21838;BME280;11081;45.946;6.140;2023-05-16T06:06:59;94639.88;;;13.60;79.78
21838;BME280;11081;45.946;6.140;2023-05-16T06:09:27;94635.75;;;13.74;79.82
21838;BME280;11081;45.946;6.140;2023-05-16T06:11:55;94634.25;;;13.83;79.13
21838;BME280;11081;45.946;6.140;2023-05-16T06:14:23;94640.59;;;13.87;78.12
21838;BME280;11081;45.946;6.140;2023-05-16T06:16:52;94643.75;;;13.89;77.80
21838;BME280;11081;45.946;6.140;2023-05-16T06:19:20;94643.97;;;13.83;76.77
21838;BME280;11081;45.946;6.140;2023-05-16T06:21:48;94651.59;;;13.84;75.42
21838;BME280;11081;45.946;6.140;2023-05-16T06:24:16;94634.25;;;13.83;75.22
21838;BME280;11081;45.946;6.140;2023-05-16T06:26:44;94643.47;;;13.86;74.66
21838;BME280;11081;45.946;6.140;2023-05-16T06:29:15;94634.31;;;13.93;74.87
21838;BME280;11081;45.946;6.140;2023-05-16T06:31:44;94647.25;;;14.05;74.68
21838;BME280;11081;45.946;6.140;2023-05-16T06:34:14;94645.16;;;14.07;74.70
21838;BME280;11081;45.946;6.140;2023-05-16T06:36:42;94645.72;;;14.14;79.12
21838;BME280;11081;45.946;6.140;2023-05-16T06:39:10;94654.47;;;15.03;78.01
21838;BME280;11081;45.946;6.140;2023-05-16T06:41:38;94640.97;;;14.74;74.27
21838;BME280;11081;45.946;6.140;2023-05-16T06:44:13;94646.69;;;14.45;75.42
21838;BME280;11081;45.946;6.140;2023-05-16T06:46:41;94651.66;;;14.47;75.01
21838;BME280;11081;45.946;6.140;2023-05-16T06:49:09;94648.78;;;14.43;74.47
21838;BME280;11081;45.946;6.140;2023-05-16T06:51:39;94661.00;;;14.27;75.14
21838;BME280;11081;45.946;6.140;2023-05-16T06:54:07;94663.59;;;14.17;74.49
21838;BME280;11081;45.946;6.140;2023-05-16T06:56:35;94659.59;;;14.10;74.81
21838;BME280;11081;45.946;6.140;2023-05-16T06:59:03;94652.50;;;14.05;76.20
21838;BME280;11081;45.946;6.140;2023-05-16T07:01:31;94664.28;;;14.02;77.25
21838;BME280;11081;45.946;6.140;2023-05-16T07:03:59;94664.28;;;14.02;78.33
21838;BME280;11081;45.946;6.140;2023-05-16T07:06:27;94661.13;;;14.00;77.61
21838;BME280;11081;45.946;6.140;2023-05-16T07:08:57;94672.63;;;13.94;78.87
21838;BME280;11081;45.946;6.140;2023-05-16T07:11:25;94676.78;;;13.90;79.26
21838;BME280;11081;45.946;6.140;2023-05-16T07:13:53;94675.22;;;13.89;80.32
21838;BME280;11081;45.946;6.140;2023-05-16T07:16:20;94669.97;;;13.89;81.35
21838;BME280;11081;45.946;6.140;2023-05-16T07:18:49;94671.56;;;13.90;81.09
21838;BME280;11081;45.946;6.140;2023-05-16T07:21:18;94674.72;;;13.92;81.05
21838;BME280;11081;45.946;6.140;2023-05-16T07:23:46;94674.78;;;14.02;81.41
21838;BME280;11081;45.946;6.140;2023-05-16T07:26:15;94671.66;;;14.11;81.52
21838;BME280;11081;45.946;6.140;2023-05-16T07:28:43;94673.53;;;14.15;81.61
21838;BME280;11081;45.946;6.140;2023-05-16T07:31:11;94671.22;;;14.24;81.59
21838;BME280;11081;45.946;6.140;2023-05-16T07:33:39;94677.03;;;14.31;81.16
21838;BME280;11081;45.946;6.140;2023-05-16T07:36:08;94674.19;;;14.38;82.16
21838;BME280;11081;45.946;6.140;2023-05-16T07:38:43;94677.09;;;14.41;81.92
21838;BME280;11081;45.946;6.140;2023-05-16T07:41:11;94677.03;;;14.31;81.45
21838;BME280;11081;45.946;6.140;2023-05-16T07:43:40;94669.13;;;14.26;82.03
21838;BME280;11081;45.946;6.140;2023-05-16T07:46:09;94673.31;;;14.22;81.34
21838;BME280;11081;45.946;6.140;2023-05-16T07:48:37;94672.25;;;14.18;81.69
21838;BME280;11081;45.946;6.140;2023-05-16T07:51:05;94670.69;;;14.22;82.07
21838;BME280;11081;45.946;6.140;2023-05-16T07:53:33;94659.69;;;14.30;83.28
21838;BME280;11081;45.946;6.140;2023-05-16T07:56:01;94671.91;;;14.51;82.73
21838;BME280;11081;45.946;6.140;2023-05-16T07:58:29;94666.19;;;14.64;83.85
21838;BME280;11081;45.946;6.140;2023-05-16T08:00:58;94665.91;;;14.61;81.81
21838;BME280;11081;45.946;6.140;2023-05-16T08:03:26;94657.25;;;14.66;82.15
21838;BME280;11081;45.946;6.140;2023-05-16T08:05:55;94662.03;;;14.79;81.44
21838;BME280;11081;45.946;6.140;2023-05-16T08:08:23;94655.19;;;14.78;80.06
21838;BME280;11081;45.946;6.140;2023-05-16T08:10:51;94665.22;;;14.91;80.36
21838;BME280;11081;45.946;6.140;2023-05-16T08:13:19;94660.94;;;14.75;80.72
21838;BME280;11081;45.946;6.140;2023-05-16T08:15:47;94656.56;;;15.06;80.35
21838;BME280;11081;45.946;6.140;2023-05-16T08:18:16;94665.78;;;15.39;79.17
21838;BME280;11081;45.946;6.140;2023-05-16T08:20:47;94658.44;;;15.31;78.82
21838;BME280;11081;45.946;6.140;2023-05-16T08:23:15;94671.59;;;15.25;78.80
21838;BME280;11081;45.946;6.140;2023-05-16T08:25:43;94680.50;;;15.04;78.91
21838;BME280;11081;45.946;6.140;2023-05-16T08:28:11;94669.66;;;14.80;78.81
21838;BME280;11081;45.946;6.140;2023-05-16T08:30:39;94675.13;;;14.74;80.16
21838;BME280;11081;45.946;6.140;2023-05-16T08:33:10;94683.53;;;14.66;80.72
21838;BME280;11081;45.946;6.140;2023-05-16T08:35:42;94686.59;;;14.47;80.75
21838;BME280;11081;45.946;6.140;2023-05-16T08:38:11;94685.72;;;14.37;81.58
21838;BME280;11081;45.946;6.140;2023-05-16T08:40:41;94683.81;;;14.22;82.91
21838;BME280;11081;45.946;6.140;2023-05-16T08:43:10;94682.75;;;14.18;83.23
21838;BME280;11081;45.946;6.140;2023-05-16T08:45:39;94679.09;;;14.19;82.93
21838;BME280;11081;45.946;6.140;2023-05-16T08:48:09;94675.94;;;14.17;82.49
21838;BME280;11081;45.946;6.140;2023-05-16T08:50:37;94676.03;;;14.37;83.74
21838;BME280;11081;45.946;6.140;2023-05-16T08:53:11;94685.03;;;14.46;84.53
21838;BME280;11081;45.946;6.140;2023-05-16T08:55:40;94675.03;;;14.43;83.89
21838;BME280;11081;45.946;6.140;2023-05-16T08:58:09;94675.84;;;14.54;84.04
21838;BME280;11081;45.946;6.140;2023-05-16T09:00:38;94673.03;;;14.71;84.09
21838;BME280;11081;45.946;6.140;2023-05-16T09:03:07;94671.97;;;14.72;84.33
21838;BME280;11081;45.946;6.140;2023-05-16T09:05:35;94681.88;;;14.54;84.66
21838;BME280;11081;45.946;6.140;2023-05-16T09:08:03;94681.28;;;14.37;84.59
21838;BME280;11081;45.946;6.140;2023-05-16T09:10:33;94680.97;;;14.33;84.17
21838;BME280;11081;45.946;6.140;2023-05-16T09:13:01;94682.75;;;14.18;83.70
21838;BME280;11081;45.946;6.140;2023-05-16T09:15:30;94679.53;;;14.11;84.38
21838;BME280;11081;45.946;6.140;2023-05-16T09:17:59;94679.53;;;14.06;85.28
21838;BME280;11081;45.946;6.140;2023-05-16T09:20:28;94680.59;;;14.10;85.65
21838;BME280;11081;45.946;6.140;2023-05-16T09:22:58;94681.66;;;14.14;86.53
21838;BME280;11081;45.946;6.140;2023-05-16T09:25:29;94681.19;;;14.17;85.89
21838;BME280;11081;45.946;6.140;2023-05-16T09:28:00;94679.00;;;14.03;85.72
21838;BME280;11081;45.946;6.140;2023-05-16T09:30:30;94678.38;;;13.91;85.17
21838;BME280;11081;45.946;6.140;2023-05-16T09:32:59;94676.38;;;14.03;86.32
21838;BME280;11081;45.946;6.140;2023-05-16T09:35:28;94685.56;;;14.06;86.17
21838;BME280;11081;45.946;6.140;2023-05-16T09:38:14;94685.00;;;13.99;84.88
21838;BME280;11081;45.946;6.140;2023-05-16T09:40:43;94684.78;;;14.06;83.55
21838;BME280;11081;45.946;6.140;2023-05-16T09:43:14;94679.94;;;13.92;84.07
21838;BME280;11081;45.946;6.140;2023-05-16T09:45:47;94679.41;;;13.85;83.85
21838;BME280;11081;45.946;6.140;2023-05-16T09:48:16;94676.28;;;13.93;84.34
21838;BME280;11081;45.946;6.140;2023-05-16T09:50:49;94683.56;;;13.81;80.95
21838;BME280;11081;45.946;6.140;2023-05-16T09:53:24;94675.06;;;14.06;82.47
21838;BME280;11081;45.946;6.140;2023-05-16T09:56:01;94685.94;;;14.30;83.43
21838;BME280;11081;45.946;6.140;2023-05-16T09:58:31;94683.81;;;14.22;82.40
21838;BME280;11081;45.946;6.140;2023-05-16T10:01:00;94678.09;;;14.35;82.80
21838;BME280;11081;45.946;6.140;2023-05-16T10:03:29;94679.47;;;14.43;81.08
21838;BME280;11081;45.946;6.140;2023-05-16T10:05:58;94682.94;;;14.53;81.28
21838;BME280;11081;45.946;6.140;2023-05-16T10:08:30;94676.75;;;14.80;80.63
21838;BME280;11081;45.946;6.140;2023-05-16T10:11:03;94670.72;;;14.94;81.40
21838;BME280;11081;45.946;6.140;2023-05-16T10:13:34;94675.22;;;15.04;80.73
21838;BME280;11081;45.946;6.140;2023-05-16T10:16:06;94673.38;;;15.00;81.02
21838;BME280;11081;45.946;6.140;2023-05-16T10:18:35;94670.25;;;15.18;81.21
21838;BME280;11081;45.946;6.140;2023-05-16T10:21:07;94666.81;;;15.12;80.27
21838;BME280;11081;45.946;6.140;2023-05-16T10:23:40;94678.34;;;14.96;81.33
21838;BME280;11081;45.946;6.140;2023-05-16T10:26:10;94678.34;;;14.86;81.15
21838;BME280;11081;45.946;6.140;2023-05-16T10:28:42;94675.63;;;14.60;80.99
21838;BME280;11081;45.946;6.140;2023-05-16T10:31:10;94671.34;;;14.44;81.19
21838;BME280;11081;45.946;6.140;2023-05-16T10:33:38;94665.06;;;14.50;81.59
21838;BME280;11081;45.946;6.140;2023-05-16T10:36:07;94671.44;;;14.64;80.04
21838;BME280;11081;45.946;6.140;2023-05-16T10:38:37;94675.16;;;14.79;80.27
21838;BME280;11081;45.946;6.140;2023-05-16T10:41:06;94673.53;;;14.68;80.17
21838;BME280;11081;45.946;6.140;2023-05-16T10:43:35;94677.22;;;14.61;79.47
21838;BME280;11081;45.946;6.140;2023-05-16T10:46:06;94680.63;;;14.62;79.04
21838;BME280;11081;45.946;6.140;2023-05-16T10:48:36;94682.97;;;14.58;78.70
21838;BME280;11081;45.946;6.140;2023-05-16T10:51:35;94689.75;;;14.44;78.73
21838;BME280;11081;45.946;6.140;2023-05-16T10:54:08;94684.97;;;14.41;79.35
21838;BME280;11081;45.946;6.140;2023-05-16T10:56:37;94687.59;;;14.41;78.27
21838;BME280;11081;45.946;6.140;2023-05-16T10:59:21;94677.41;;;14.45;78.69
21838;BME280;11081;45.946;6.140;2023-05-16T11:01:53;94673.22;;;14.49;77.91
21838;BME280;11081;45.946;6.140;2023-05-16T11:04:22;94676.63;;;14.49;77.88
21838;BME280;11081;45.946;6.140;2023-05-16T11:06:51;94680.81;;;14.50;77.50
21838;BME280;11081;45.946;6.140;2023-05-16T11:09:22;94673.41;;;14.42;77.55
21838;BME280;11081;45.946;6.140;2023-05-16T11:11:59;94676.63;;;14.49;77.06
21838;BME280;11081;45.946;6.140;2023-05-16T11:14:35;94668.75;;;14.49;76.45
21838;BME280;11081;45.946;6.140;2023-05-16T11:17:09;94661.91;;;14.48;76.75
21838;BME280;11081;45.946;6.140;2023-05-16T11:19:42;94658.06;;;14.71;76.78
21838;BME280;11081;45.946;6.140;2023-05-16T11:22:22;94665.63;;;14.57;76.81
21838;BME280;11081;45.946;6.140;2023-05-16T11:24:53;94657.78;;;14.62;77.21
21838;BME280;11081;45.946;6.140;2023-05-16T11:27:24;94657.88;;;15.03;76.32
21838;BME280;11081;45.946;6.140;2023-05-16T11:29:55;94654.25;;;15.24;75.76
21838;BME280;11081;45.946;6.140;2023-05-16T11:32:32;94668.44;;;15.29;75.84
21838;BME280;11081;45.946;6.140;2023-05-16T11:35:01;94668.16;;;15.30;75.57
21838;BME280;11081;45.946;6.140;2023-05-16T11:37:30;94668.97;;;15.31;76.10
21838;BME280;11081;45.946;6.140;2023-05-16T11:39:58;94662.66;;;15.27;75.92
21838;BME280;11081;45.946;6.140;2023-05-16T11:42:29;94671.81;;;15.09;75.06
21838;BME280;11081;45.946;6.140;2023-05-16T11:45:06;94679.44;;;15.05;74.90
21838;BME280;11081;45.946;6.140;2023-05-16T11:47:37;94670.50;;;15.11;76.16
21838;BME280;11081;45.946;6.140;2023-05-16T11:50:06;94669.97;;;15.09;74.89
21838;BME280;11081;45.946;6.140;2023-05-16T11:52:35;94679.69;;;15.04;75.17
21838;BME280;11081;45.946;6.140;2023-05-16T11:55:04;94674.72;;;15.12;75.44
21838;BME280;11081;45.946;6.140;2023-05-16T11:57:33;94678.91;;;15.13;75.77
21838;BME280;11081;45.946;6.140;2023-05-16T12:00:02;94674.72;;;15.17;75.04
21838;BME280;11081;45.946;6.140;2023-05-16T12:02:33;94678.13;;;15.13;74.44
21838;BME280;11081;45.946;6.140;2023-05-16T12:05:07;94676.31;;;15.29;74.68
21838;BME280;11081;45.946;6.140;2023-05-16T12:07:36;94673.69;;;15.54;75.11
21838;BME280;11081;45.946;6.140;2023-05-16T12:10:05;94676.88;;;15.76;73.23
21838;BME280;11081;45.946;6.140;2023-05-16T12:12:34;94676.34;;;15.90;73.06
21838;BME280;11081;45.946;6.140;2023-05-16T12:15:04;94677.94;;;15.91;73.41
21838;BME280;11081;45.946;6.140;2023-05-16T12:17:32;94678.19;;;16.04;72.31
21838;BME280;11081;45.946;6.140;2023-05-16T12:20:03;94681.06;;;16.08;70.92
21838;BME280;11081;45.946;6.140;2023-05-16T12:22:33;94685.81;;;15.91;70.53
21838;BME280;11081;45.946;6.140;2023-05-16T12:25:25;94694.78;;;15.64;67.78
21838;BME280;11081;45.946;6.140;2023-05-16T12:27:56;94694.22;;;15.47;69.91
21838;BME280;11081;45.946;6.140;2023-05-16T12:30:26;94686.09;;;15.69;69.98
21838;BME280;11081;45.946;6.140;2023-05-16T12:32:55;94675.81;;;15.93;68.91
21838;BME280;11081;45.946;6.140;2023-05-16T12:35:24;94689.50;;;15.95;69.01
21838;BME280;11081;45.946;6.140;2023-05-16T12:37:53;94701.09;;;16.04;68.55
21838;BME280;11081;45.946;6.140;2023-05-16T12:40:21;94685.28;;;15.99;68.67
21838;BME280;11081;45.946;6.140;2023-05-16T12:42:49;94705.81;;;16.02;68.51
21838;BME280;11081;45.946;6.140;2023-05-16T12:45:18;94694.22;;;15.98;67.77
21838;BME280;11081;45.946;6.140;2023-05-16T12:47:46;94701.56;;;16.21;67.51
21838;BME280;11081;45.946;6.140;2023-05-16T12:50:15;94689.47;;;16.25;66.86
21838;BME280;11081;45.946;6.140;2023-05-16T12:52:46;94700.50;;;16.32;67.59
21838;BME280;11081;45.946;6.140;2023-05-16T12:55:18;94701.59;;;16.16;66.55
21838;BME280;11081;45.946;6.140;2023-05-16T12:57:47;94697.41;;;15.95;66.34
21838;BME280;11081;45.946;6.140;2023-05-16T13:00:17;94698.47;;;15.89;67.03
21838;BME280;11081;45.946;6.140;2023-05-16T13:02:47;94716.34;;;15.92;66.77
21838;BME280;11081;45.946;6.140;2023-05-16T13:05:15;94711.06;;;15.56;66.46
21838;BME280;11081;45.946;6.140;2023-05-16T13:07:44;94702.13;;;15.52;67.04
21838;BME280;11081;45.946;6.140;2023-05-16T13:10:14;94697.41;;;15.59;66.45
21838;BME280;11081;45.946;6.140;2023-05-16T13:12:43;94686.88;;;15.59;66.52